sensor_id;sensor_type;location;lat;lon;timestamp;P1;durP1;ratioP1;P2;durP2;ratioP2
21272;SDS011;36726;52.328;10.552;2023-03-23T00:00:05;1.48;;;0.55;;
21272;SDS011;36726;52.328;10.552;2023-03-23T00:02:35;1.92;;;0.57;;
21272;SDS011;36726;52.328;10.552;2023-03-23T00:05:03;0.82;;;0.52;;
21272;SDS011;36726;52.328;10.552;2023-03-23T00:07:32;1.05;;;0.70;;
21272;SDS011;36726;52.328;10.552;2023-03-23T00:09:58;2.92;;;0.88;;
21272;SDS011;36726;52.328;10.552;2023-03-23T00:12:26;4.15;;;0.70;;
21272;SDS011;36726;52.328;10.552;2023-03-23T00:14:59;1.38;;;0.70;;
21272;SDS011;36726;52.328;10.552;2023-03-23T00:17:26;0.75;;;0.47;;
21272;SDS011;36726;52.328;10.552;2023-03-23T00:19:52;0.40;;;0.40;;
21272;SDS011;36726;52.328;10.552;2023-03-23T00:22:18;1.10;;;0.65;;
21272;SDS011;36726;52.328;10.552;2023-03-23T00:24:46;0.52;;;0.43;;
21272;SDS011;36726;52.328;10.552;2023-03-23T00:27:15;2.20;;;0.70;;
21272;SDS011;36726;52.328;10.552;2023-03-23T00:29:41;0.40;;;0.40;;
21272;SDS011;36726;52.328;10.552;2023-03-23T00:32:07;0.50;;;0.45;;
21272;SDS011;36726;52.328;10.552;2023-03-23T00:34:39;0.65;;;0.57;;
21272;SDS011;36726;52.328;10.552;2023-03-23T00:37:06;0.70;;;0.50;;
21272;SDS011;36726;52.328;10.552;2023-03-23T00:39:32;1.48;;;0.60;;
21272;SDS011;36726;52.328;10.552;2023-03-23T00:42:01;0.90;;;0.77;;
21272;SDS011;36726;52.328;10.552;2023-03-23T00:44:27;1.15;;;0.65;;
21272;SDS011;36726;52.328;10.552;2023-03-23T00:46:56;3.58;;;0.90;;
21272;SDS011;36726;52.328;10.552;2023-03-23T00:49:22;1.48;;;0.70;;
21272;SDS011;36726;52.328;10.552;2023-03-23T00:51:53;1.05;;;0.73;;
21272;SDS011;36726;52.328;10.552;2023-03-23T00:54:21;1.35;;;0.60;;
21272;SDS011;36726;52.328;10.552;2023-03-23T00:56:48;2.67;;;0.68;;
21272;SDS011;36726;52.328;10.552;2023-03-23T00:59:14;1.73;;;0.70;;
21272;SDS011;36726;52.328;10.552;2023-03-23T01:01:41;0.80;;;0.60;;
21272;SDS011;36726;52.328;10.552;2023-03-23T01:04:08;1.38;;;0.95;;
21272;SDS011;36726;52.328;10.552;2023-03-23T01:06:38;0.88;;;0.60;;
21272;SDS011;36726;52.328;10.552;2023-03-23T01:09:06;1.13;;;0.60;;
21272;SDS011;36726;52.328;10.552;2023-03-23T01:11:34;1.52;;;0.90;;
21272;SDS011;36726;52.328;10.552;2023-03-23T01:14:00;1.15;;;0.63;;
21272;SDS011;36726;52.328;10.552;2023-03-23T01:16:26;1.50;;;1.05;;
21272;SDS011;36726;52.328;10.552;2023-03-23T01:18:51;0.65;;;0.55;;
21272;SDS011;36726;52.328;10.552;2023-03-23T01:21:18;2.65;;;0.80;;
21272;SDS011;36726;52.328;10.552;2023-03-23T01:23:45;2.78;;;1.00;;
21272;SDS011;36726;52.328;10.552;2023-03-23T01:26:12;2.03;;;0.95;;
21272;SDS011;36726;52.328;10.552;2023-03-23T01:28:40;2.85;;;0.90;;
21272;SDS011;36726;52.328;10.552;2023-03-23T01:31:06;1.15;;;0.93;;
21272;SDS011;36726;52.328;10.552;2023-03-23T01:33:37;1.30;;;0.82;;
21272;SDS011;36726;52.328;10.552;2023-03-23T01:36:04;1.80;;;1.00;;
21272;SDS011;36726;52.328;10.552;2023-03-23T01:38:32;2.83;;;0.68;;
21272;SDS011;36726;52.328;10.552;2023-03-23T01:40:59;1.10;;;1.00;;
21272;SDS011;36726;52.328;10.552;2023-03-23T01:43:25;1.83;;;1.05;;
21272;SDS011;36726;52.328;10.552;2023-03-23T01:45:51;1.38;;;0.82;;
21272;SDS011;36726;52.328;10.552;2023-03-23T01:48:18;1.05;;;0.80;;
21272;SDS011;36726;52.328;10.552;2023-03-23T01:50:48;1.80;;;0.93;;
21272;SDS011;36726;52.328;10.552;2023-03-23T01:53:21;2.60;;;1.10;;
21272;SDS011;36726;52.328;10.552;2023-03-23T01:55:50;1.25;;;0.70;;
21272;SDS011;36726;52.328;10.552;2023-03-23T01:58:20;0.90;;;0.80;;
21272;SDS011;36726;52.328;10.552;2023-03-23T02:00:52;0.82;;;0.80;;
21272;SDS011;36726;52.328;10.552;2023-03-23T09:44:30;1.38;;;0.90;;
21272;SDS011;36726;52.328;10.552;2023-03-23T09:47:04;3.88;;;1.10;;
21272;SDS011;36726;52.328;10.552;2023-03-23T09:49:34;5.43;;;1.02;;
21272;SDS011;36726;52.328;10.552;2023-03-23T09:52:16;0.93;;;0.60;;
21272;SDS011;36726;52.328;10.552;2023-03-23T09:54:44;1.10;;;0.70;;
21272;SDS011;36726;52.328;10.552;2023-03-23T10:02:49;1.98;;;0.70;;
21272;SDS011;36726;52.328;10.552;2023-03-23T10:05:42;1.27;;;0.75;;
21272;SDS011;36726;52.328;10.552;2023-03-23T10:08:10;2.40;;;1.08;;
21272;SDS011;36726;52.328;10.552;2023-03-23T10:16:04;2.85;;;0.80;;
21272;SDS011;36726;52.328;10.552;2023-03-23T10:21:26;0.77;;;0.60;;
21272;SDS011;36726;52.328;10.552;2023-03-23T10:24:02;1.30;;;0.60;;
21272;SDS011;36726;52.328;10.552;2023-03-23T10:26:39;1.80;;;0.75;;
21272;SDS011;36726;52.328;10.552;2023-03-23T10:29:28;1.98;;;0.90;;
21272;SDS011;36726;52.328;10.552;2023-03-23T10:32:11;3.42;;;0.85;;
21272;SDS011;36726;52.328;10.552;2023-03-23T10:34:59;1.42;;;0.90;;
21272;SDS011;36726;52.328;10.552;2023-03-23T10:37:29;5.75;;;0.70;;
21272;SDS011;36726;52.328;10.552;2023-03-23T10:39:58;1.70;;;0.90;;
21272;SDS011;36726;52.328;10.552;2023-03-23T10:42:30;2.13;;;1.20;;
21272;SDS011;36726;52.328;10.552;2023-03-23T10:44:58;2.05;;;1.10;;
21272;SDS011;36726;52.328;10.552;2023-03-23T10:47:25;0.88;;;0.80;;
21272;SDS011;36726;52.328;10.552;2023-03-23T10:49:55;1.58;;;0.85;;
21272;SDS011;36726;52.328;10.552;2023-03-23T10:54:55;3.80;;;1.02;;
21272;SDS011;36726;52.328;10.552;2023-03-23T10:57:24;1.33;;;0.80;;
21272;SDS011;36726;52.328;10.552;2023-03-23T10:59:58;1.33;;;0.77;;
21272;SDS011;36726;52.328;10.552;2023-03-23T11:02:45;3.95;;;0.98;;
21272;SDS011;36726;52.328;10.552;2023-03-23T11:05:32;2.10;;;1.00;;
21272;SDS011;36726;52.328;10.552;2023-03-23T11:08:10;2.30;;;0.88;;
21272;SDS011;36726;52.328;10.552;2023-03-23T11:10:51;2.47;;;0.85;;
21272;SDS011;36726;52.328;10.552;2023-03-23T11:13:21;1.88;;;0.68;;
21272;SDS011;36726;52.328;10.552;2023-03-23T11:15:50;1.83;;;0.90;;
21272;SDS011;36726;52.328;10.552;2023-03-23T11:18:19;1.20;;;0.80;;
21272;SDS011;36726;52.328;10.552;2023-03-23T11:20:52;5.90;;;1.33;;
21272;SDS011;36726;52.328;10.552;2023-03-23T11:23:24;3.75;;;1.08;;
21272;SDS011;36726;52.328;10.552;2023-03-23T11:25:55;3.10;;;1.08;;
21272;SDS011;36726;52.328;10.552;2023-03-23T11:28:25;2.40;;;1.00;;
21272;SDS011;36726;52.328;10.552;2023-03-23T11:30:54;2.08;;;1.00;;
21272;SDS011;36726;52.328;10.552;2023-03-23T11:33:21;4.78;;;1.10;;
21272;SDS011;36726;52.328;10.552;2023-03-23T11:35:50;4.53;;;1.13;;
21272;SDS011;36726;52.328;10.552;2023-03-23T11:38:19;3.35;;;1.13;;
21272;SDS011;36726;52.328;10.552;2023-03-23T11:40:47;3.70;;;1.20;;
21272;SDS011;36726;52.328;10.552;2023-03-23T11:43:17;5.30;;;1.20;;
21272;SDS011;36726;52.328;10.552;2023-03-23T11:45:51;2.35;;;1.33;;
21272;SDS011;36726;52.328;10.552;2023-03-23T11:48:38;6.68;;;1.20;;
21272;SDS011;36726;52.328;10.552;2023-03-23T11:51:11;2.30;;;1.00;;
21272;SDS011;36726;52.328;10.552;2023-03-23T11:56:34;1.58;;;0.90;;
21272;SDS011;36726;52.328;10.552;2023-03-23T11:59:08;2.80;;;0.80;;
21272;SDS011;36726;52.328;10.552;2023-03-23T12:13:12;2.33;;;0.90;;
21272;SDS011;36726;52.328;10.552;2023-03-23T12:16:00;1.40;;;0.80;;
21272;SDS011;36726;52.328;10.552;2023-03-23T12:18:49;3.13;;;1.13;;
21272;SDS011;36726;52.328;10.552;2023-03-23T12:21:39;2.40;;;1.08;;
21272;SDS011;36726;52.328;10.552;2023-03-23T12:26:47;2.60;;;0.95;;
21272;SDS011;36726;52.328;10.552;2023-03-23T12:29:24;2.47;;;1.13;;
21272;SDS011;36726;52.328;10.552;2023-03-23T12:35:00;1.88;;;1.00;;
21272;SDS011;36726;52.328;10.552;2023-03-23T12:40:36;1.45;;;0.88;;
21272;SDS011;36726;52.328;10.552;2023-03-23T12:48:33;3.08;;;1.20;;
21272;SDS011;36726;52.328;10.552;2023-03-23T12:51:22;5.38;;;1.58;;
21272;SDS011;36726;52.328;10.552;2023-03-23T12:57:04;3.00;;;1.20;;
21272;SDS011;36726;52.328;10.552;2023-03-23T12:59:40;2.20;;;1.08;;
21272;SDS011;36726;52.328;10.552;2023-03-23T13:02:25;7.47;;;1.27;;
21272;SDS011;36726;52.328;10.552;2023-03-23T13:05:07;1.58;;;1.10;;
21272;SDS011;36726;52.328;10.552;2023-03-23T13:07:45;2.45;;;1.27;;
21272;SDS011;36726;52.328;10.552;2023-03-23T13:10:26;3.90;;;1.33;;
21272;SDS011;36726;52.328;10.552;2023-03-23T13:12:54;3.17;;;1.30;;
21272;SDS011;36726;52.328;10.552;2023-03-23T13:15:39;2.17;;;0.98;;
21272;SDS011;36726;52.328;10.552;2023-03-23T13:18:24;2.10;;;0.90;;
21272;SDS011;36726;52.328;10.552;2023-03-23T13:23:58;3.47;;;1.60;;
21272;SDS011;36726;52.328;10.552;2023-03-23T13:26:28;3.47;;;1.23;;
21272;SDS011;36726;52.328;10.552;2023-03-23T13:28:59;2.88;;;1.10;;
21272;SDS011;36726;52.328;10.552;2023-03-23T13:31:33;2.22;;;0.70;;
21272;SDS011;36726;52.328;10.552;2023-03-23T13:36:38;2.25;;;0.80;;
21272;SDS011;36726;52.328;10.552;2023-03-23T13:39:16;1.38;;;0.73;;
21272;SDS011;36726;52.328;10.552;2023-03-23T13:54:48;1.98;;;0.90;;
21272;SDS011;36726;52.328;10.552;2023-03-23T13:57:23;1.55;;;0.70;;
21272;SDS011;36726;52.328;10.552;2023-03-23T13:59:54;0.95;;;0.60;;
21272;SDS011;36726;52.328;10.552;2023-03-23T14:02:30;3.35;;;0.98;;
21272;SDS011;36726;52.328;10.552;2023-03-23T14:05:25;2.15;;;0.70;;
21272;SDS011;36726;52.328;10.552;2023-03-23T14:07:57;0.95;;;0.38;;
21272;SDS011;36726;52.328;10.552;2023-03-23T14:11:13;2.10;;;0.50;;
21272;SDS011;36726;52.328;10.552;2023-03-23T14:13:32;1.35;;;0.40;;
21272;SDS011;36726;52.328;10.552;2023-03-23T14:16:13;0.50;;;0.30;;
21272;SDS011;36726;52.328;10.552;2023-03-23T14:18:39;0.77;;;0.40;;
21272;SDS011;36726;52.328;10.552;2023-03-23T14:21:15;1.52;;;0.40;;
21272;SDS011;36726;52.328;10.552;2023-03-23T14:23:42;1.83;;;0.50;;
21272;SDS011;36726;52.328;10.552;2023-03-23T14:26:12;1.60;;;0.30;;
21272;SDS011;36726;52.328;10.552;2023-03-23T14:28:42;1.80;;;0.30;;
21272;SDS011;36726;52.328;10.552;2023-03-23T14:33:53;1.25;;;0.30;;
21272;SDS011;36726;52.328;10.552;2023-03-23T14:36:26;2.58;;;0.22;;
21272;SDS011;36726;52.328;10.552;2023-03-23T14:39:20;1.23;;;0.30;;
21272;SDS011;36726;52.328;10.552;2023-03-23T14:42:04;0.68;;;0.22;;
21272;SDS011;36726;52.328;10.552;2023-03-23T14:44:37;0.98;;;0.40;;
21272;SDS011;36726;52.328;10.552;2023-03-23T14:47:07;2.03;;;0.40;;
21272;SDS011;36726;52.328;10.552;2023-03-23T14:49:41;0.93;;;0.25;;
21272;SDS011;36726;52.328;10.552;2023-03-23T14:52:09;1.15;;;0.45;;
21272;SDS011;36726;52.328;10.552;2023-03-23T14:54:42;0.30;;;0.30;;
21272;SDS011;36726;52.328;10.552;2023-03-23T14:57:16;1.50;;;0.45;;
21272;SDS011;36726;52.328;10.552;2023-03-23T14:59:44;1.33;;;0.40;;
21272;SDS011;36726;52.328;10.552;2023-03-23T15:02:12;1.05;;;0.35;;
21272;SDS011;36726;52.328;10.552;2023-03-23T15:04:48;0.82;;;0.40;;
21272;SDS011;36726;52.328;10.552;2023-03-23T15:07:17;1.08;;;0.55;;
21272;SDS011;36726;52.328;10.552;2023-03-23T15:09:43;2.13;;;0.50;;
21272;SDS011;36726;52.328;10.552;2023-03-23T15:12:19;0.68;;;0.50;;
21272;SDS011;36726;52.328;10.552;2023-03-23T15:14:48;0.60;;;0.40;;
21272;SDS011;36726;52.328;10.552;2023-03-23T15:17:18;0.88;;;0.50;;
21272;SDS011;36726;52.328;10.552;2023-03-23T15:19:46;1.48;;;0.50;;
21272;SDS011;36726;52.328;10.552;2023-03-23T15:22:19;1.13;;;0.70;;
21272;SDS011;36726;52.328;10.552;2023-03-23T15:24:45;1.50;;;0.60;;
21272;SDS011;36726;52.328;10.552;2023-03-23T15:27:23;0.98;;;0.73;;
21272;SDS011;36726;52.328;10.552;2023-03-23T15:30:15;2.22;;;0.80;;
21272;SDS011;36726;52.328;10.552;2023-03-23T15:32:39;4.38;;;1.48;;
21272;SDS011;36726;52.328;10.552;2023-03-23T15:35:13;2.22;;;0.98;;
21272;SDS011;36726;52.328;10.552;2023-03-23T15:37:43;1.05;;;0.85;;
21272;SDS011;36726;52.328;10.552;2023-03-23T15:40:15;1.30;;;0.75;;
21272;SDS011;36726;52.328;10.552;2023-03-23T15:42:43;1.88;;;0.98;;
21272;SDS011;36726;52.328;10.552;2023-03-23T15:50:11;1.63;;;0.90;;
21272;SDS011;36726;52.328;10.552;2023-03-23T15:52:38;1.50;;;0.80;;
21272;SDS011;36726;52.328;10.552;2023-03-23T15:58:08;4.25;;;0.90;;
21272;SDS011;36726;52.328;10.552;2023-03-23T16:00:37;0.95;;;0.77;;
21272;SDS011;36726;52.328;10.552;2023-03-23T16:03:08;2.22;;;0.98;;
21272;SDS011;36726;52.328;10.552;2023-03-23T16:05:37;1.42;;;0.73;;
21272;SDS011;36726;52.328;10.552;2023-03-23T16:08:04;1.05;;;0.60;;
21272;SDS011;36726;52.328;10.552;2023-03-23T16:10:31;1.05;;;0.82;;
21272;SDS011;36726;52.328;10.552;2023-03-23T16:12:58;3.58;;;0.90;;
21272;SDS011;36726;52.328;10.552;2023-03-23T16:15:24;1.60;;;0.93;;
21272;SDS011;36726;52.328;10.552;2023-03-23T16:17:51;1.45;;;0.88;;
21272;SDS011;36726;52.328;10.552;2023-03-23T16:20:19;4.90;;;1.25;;
21272;SDS011;36726;52.328;10.552;2023-03-23T16:22:48;2.20;;;1.00;;
21272;SDS011;36726;52.328;10.552;2023-03-23T16:25:16;3.78;;;1.13;;
21272;SDS011;36726;52.328;10.552;2023-03-23T16:27:44;2.20;;;0.80;;
21272;SDS011;36726;52.328;10.552;2023-03-23T16:30:19;2.03;;;0.90;;
21272;SDS011;36726;52.328;10.552;2023-03-23T16:32:48;1.55;;;0.75;;
21272;SDS011;36726;52.328;10.552;2023-03-23T16:35:17;1.10;;;0.60;;
21272;SDS011;36726;52.328;10.552;2023-03-23T16:37:45;2.22;;;0.60;;
21272;SDS011;36726;52.328;10.552;2023-03-23T16:40:13;1.50;;;0.60;;
21272;SDS011;36726;52.328;10.552;2023-03-23T16:42:42;0.98;;;0.57;;
21272;SDS011;36726;52.328;10.552;2023-03-23T16:45:08;0.95;;;0.60;;
21272;SDS011;36726;52.328;10.552;2023-03-23T16:47:35;1.20;;;0.57;;
21272;SDS011;36726;52.328;10.552;2023-03-23T16:50:03;1.92;;;0.60;;
21272;SDS011;36726;52.328;10.552;2023-03-23T16:52:32;1.48;;;0.82;;
21272;SDS011;36726;52.328;10.552;2023-03-23T16:55:11;0.40;;;0.40;;
21272;SDS011;36726;52.328;10.552;2023-03-23T16:57:39;2.03;;;0.80;;
21272;SDS011;36726;52.328;10.552;2023-03-23T17:00:10;0.98;;;0.50;;
21272;SDS011;36726;52.328;10.552;2023-03-23T17:02:41;0.82;;;0.57;;
21272;SDS011;36726;52.328;10.552;2023-03-23T17:05:09;1.92;;;0.90;;
21272;SDS011;36726;52.328;10.552;2023-03-23T17:07:37;1.85;;;1.00;;
21272;SDS011;36726;52.328;10.552;2023-03-23T17:10:04;2.38;;;0.60;;
21272;SDS011;36726;52.328;10.552;2023-03-23T17:12:32;1.45;;;0.82;;
21272;SDS011;36726;52.328;10.552;2023-03-23T17:14:59;5.75;;;2.20;;
21272;SDS011;36726;52.328;10.552;2023-03-23T17:17:26;1.23;;;0.85;;
21272;SDS011;36726;52.328;10.552;2023-03-23T17:19:53;1.05;;;0.70;;
21272;SDS011;36726;52.328;10.552;2023-03-23T17:22:20;1.85;;;0.85;;
21272;SDS011;36726;52.328;10.552;2023-03-23T17:24:46;0.90;;;0.70;;
21272;SDS011;36726;52.328;10.552;2023-03-23T17:27:14;0.80;;;0.68;;
21272;SDS011;36726;52.328;10.552;2023-03-23T17:29:43;1.48;;;0.85;;
21272;SDS011;36726;52.328;10.552;2023-03-23T17:32:10;2.38;;;0.93;;
21272;SDS011;36726;52.328;10.552;2023-03-23T17:34:37;0.70;;;0.70;;
21272;SDS011;36726;52.328;10.552;2023-03-23T17:37:04;3.40;;;0.60;;
21272;SDS011;36726;52.328;10.552;2023-03-23T17:39:32;1.90;;;0.98;;
21272;SDS011;36726;52.328;10.552;2023-03-23T17:42:08;2.65;;;0.90;;
21272;SDS011;36726;52.328;10.552;2023-03-23T17:44:35;2.22;;;1.05;;
21272;SDS011;36726;52.328;10.552;2023-03-23T17:47:05;1.75;;;0.90;;
21272;SDS011;36726;52.328;10.552;2023-03-23T17:49:31;2.33;;;1.13;;
21272;SDS011;36726;52.328;10.552;2023-03-23T17:51:58;2.30;;;1.00;;
21272;SDS011;36726;52.328;10.552;2023-03-23T17:54:25;1.77;;;1.15;;
21272;SDS011;36726;52.328;10.552;2023-03-23T17:56:52;2.30;;;1.15;;
21272;SDS011;36726;52.328;10.552;2023-03-23T17:59:19;1.33;;;0.98;;
21272;SDS011;36726;52.328;10.552;2023-03-23T18:01:47;2.63;;;1.10;;
21272;SDS011;36726;52.328;10.552;2023-03-23T18:04:14;2.33;;;1.38;;
21272;SDS011;36726;52.328;10.552;2023-03-23T18:06:42;1.65;;;1.00;;
21272;SDS011;36726;52.328;10.552;2023-03-23T18:09:08;1.45;;;1.08;;
21272;SDS011;36726;52.328;10.552;2023-03-23T18:11:36;2.20;;;1.30;;
21272;SDS011;36726;52.328;10.552;2023-03-23T18:14:03;2.28;;;1.40;;
21272;SDS011;36726;52.328;10.552;2023-03-23T18:16:30;2.28;;;1.23;;
21272;SDS011;36726;52.328;10.552;2023-03-23T18:18:57;2.38;;;1.35;;
21272;SDS011;36726;52.328;10.552;2023-03-23T18:21:23;2.10;;;1.38;;
21272;SDS011;36726;52.328;10.552;2023-03-23T18:23:52;2.33;;;1.30;;
21272;SDS011;36726;52.328;10.552;2023-03-23T18:26:25;2.22;;;1.30;;
21272;SDS011;36726;52.328;10.552;2023-03-23T18:28:52;1.27;;;1.15;;
21272;SDS011;36726;52.328;10.552;2023-03-23T18:31:19;2.90;;;1.10;;
21272;SDS011;36726;52.328;10.552;2023-03-23T18:33:47;2.22;;;1.50;;
21272;SDS011;36726;52.328;10.552;2023-03-23T18:36:20;17.27;;;10.00;;
21272;SDS011;36726;52.328;10.552;2023-03-23T18:38:48;42.92;;;20.17;;
21272;SDS011;36726;52.328;10.552;2023-03-23T18:41:16;40.38;;;20.17;;
21272;SDS011;36726;52.328;10.552;2023-03-23T18:43:43;36.08;;;18.83;;
21272;SDS011;36726;52.328;10.552;2023-03-23T18:46:10;19.63;;;10.93;;
21272;SDS011;36726;52.328;10.552;2023-03-23T18:48:37;9.02;;;4.70;;
21272;SDS011;36726;52.328;10.552;2023-03-23T18:51:03;6.72;;;3.85;;
21272;SDS011;36726;52.328;10.552;2023-03-23T18:53:31;3.47;;;1.80;;
21272;SDS011;36726;52.328;10.552;2023-03-23T18:56:05;3.25;;;1.75;;
21272;SDS011;36726;52.328;10.552;2023-03-23T18:58:32;1.88;;;1.38;;
21272;SDS011;36726;52.328;10.552;2023-03-23T19:01:01;2.63;;;1.60;;
21272;SDS011;36726;52.328;10.552;2023-03-23T19:03:33;6.80;;;3.50;;
21272;SDS011;36726;52.328;10.552;2023-03-23T19:06:01;2.88;;;1.73;;
21272;SDS011;36726;52.328;10.552;2023-03-23T19:08:28;3.78;;;1.77;;
21272;SDS011;36726;52.328;10.552;2023-03-23T19:10:56;3.30;;;2.28;;
21272;SDS011;36726;52.328;10.552;2023-03-23T19:13:27;9.00;;;5.03;;
21272;SDS011;36726;52.328;10.552;2023-03-23T19:15:55;5.25;;;3.10;;
21272;SDS011;36726;52.328;10.552;2023-03-23T19:18:22;6.03;;;2.75;;
21272;SDS011;36726;52.328;10.552;2023-03-23T19:20:48;3.97;;;2.45;;
21272;SDS011;36726;52.328;10.552;2023-03-23T19:23:22;4.53;;;2.67;;
21272;SDS011;36726;52.328;10.552;2023-03-23T19:25:49;3.90;;;2.20;;
21272;SDS011;36726;52.328;10.552;2023-03-23T19:28:18;5.10;;;2.97;;
21272;SDS011;36726;52.328;10.552;2023-03-23T19:31:05;4.68;;;2.88;;
21272;SDS011;36726;52.328;10.552;2023-03-23T19:33:33;4.22;;;2.63;;
21272;SDS011;36726;52.328;10.552;2023-03-23T19:36:00;3.03;;;2.22;;
21272;SDS011;36726;52.328;10.552;2023-03-23T19:38:38;3.05;;;1.92;;
21272;SDS011;36726;52.328;10.552;2023-03-23T19:41:04;2.67;;;2.00;;
21272;SDS011;36726;52.328;10.552;2023-03-23T19:43:32;3.72;;;2.15;;
21272;SDS011;36726;52.328;10.552;2023-03-23T19:45:59;5.35;;;2.40;;
21272;SDS011;36726;52.328;10.552;2023-03-23T19:48:26;4.53;;;2.67;;
21272;SDS011;36726;52.328;10.552;2023-03-23T19:50:52;4.25;;;1.80;;
21272;SDS011;36726;52.328;10.552;2023-03-23T19:53:21;3.53;;;1.90;;
21272;SDS011;36726;52.328;10.552;2023-03-23T19:55:51;3.60;;;1.70;;
21272;SDS011;36726;52.328;10.552;2023-03-23T19:58:18;2.60;;;1.70;;
21272;SDS011;36726;52.328;10.552;2023-03-23T20:00:46;2.53;;;1.92;;
21272;SDS011;36726;52.328;10.552;2023-03-23T20:03:14;4.65;;;2.20;;
21272;SDS011;36726;52.328;10.552;2023-03-23T20:05:41;3.72;;;2.40;;
21272;SDS011;36726;52.328;10.552;2023-03-23T20:08:08;4.38;;;2.50;;
21272;SDS011;36726;52.328;10.552;2023-03-23T20:10:36;4.32;;;2.50;;
21272;SDS011;36726;52.328;10.552;2023-03-23T20:13:05;5.90;;;2.78;;
21272;SDS011;36726;52.328;10.552;2023-03-23T20:15:32;4.35;;;2.20;;
21272;SDS011;36726;52.328;10.552;2023-03-23T20:17:59;6.47;;;2.42;;
21272;SDS011;36726;52.328;10.552;2023-03-23T20:20:26;4.03;;;2.35;;
21272;SDS011;36726;52.328;10.552;2023-03-23T20:22:53;3.65;;;2.33;;
21272;SDS011;36726;52.328;10.552;2023-03-23T20:25:23;4.45;;;2.20;;
21272;SDS011;36726;52.328;10.552;2023-03-23T20:27:51;5.35;;;2.08;;
21272;SDS011;36726;52.328;10.552;2023-03-23T20:30:20;4.32;;;2.50;;
21272;SDS011;36726;52.328;10.552;2023-03-23T20:32:47;5.55;;;2.35;;
21272;SDS011;36726;52.328;10.552;2023-03-23T20:35:14;4.43;;;2.70;;
21272;SDS011;36726;52.328;10.552;2023-03-23T20:37:41;3.85;;;2.70;;
21272;SDS011;36726;52.328;10.552;2023-03-23T20:40:10;3.58;;;2.45;;
21272;SDS011;36726;52.328;10.552;2023-03-23T20:42:39;3.20;;;2.22;;
21272;SDS011;36726;52.328;10.552;2023-03-23T20:45:10;3.40;;;2.20;;
21272;SDS011;36726;52.328;10.552;2023-03-23T20:47:38;2.25;;;2.05;;
21272;SDS011;36726;52.328;10.552;2023-03-23T20:50:06;4.07;;;2.22;;
21272;SDS011;36726;52.328;10.552;2023-03-23T20:52:34;4.47;;;2.50;;
21272;SDS011;36726;52.328;10.552;2023-03-23T20:55:02;4.38;;;3.20;;
21272;SDS011;36726;52.328;10.552;2023-03-23T20:57:29;6.00;;;3.50;;
21272;SDS011;36726;52.328;10.552;2023-03-23T20:59:56;4.57;;;3.17;;
21272;SDS011;36726;52.328;10.552;2023-03-23T21:02:23;7.75;;;3.42;;
21272;SDS011;36726;52.328;10.552;2023-03-23T21:04:51;6.25;;;3.25;;
21272;SDS011;36726;52.328;10.552;2023-03-23T21:07:18;5.80;;;3.00;;
21272;SDS011;36726;52.328;10.552;2023-03-23T21:09:49;6.20;;;3.08;;
21272;SDS011;36726;52.328;10.552;2023-03-23T21:12:15;6.60;;;2.78;;
21272;SDS011;36726;52.328;10.552;2023-03-23T21:14:42;4.55;;;3.00;;
21272;SDS011;36726;52.328;10.552;2023-03-23T21:17:10;4.30;;;2.83;;
21272;SDS011;36726;52.328;10.552;2023-03-23T21:19:38;7.35;;;2.90;;
21272;SDS011;36726;52.328;10.552;2023-03-23T21:22:04;5.55;;;2.90;;
21272;SDS011;36726;52.328;10.552;2023-03-23T21:24:31;3.92;;;2.60;;
21272;SDS011;36726;52.328;10.552;2023-03-23T21:26:59;4.20;;;2.70;;
21272;SDS011;36726;52.328;10.552;2023-03-23T21:29:28;3.97;;;2.30;;
21272;SDS011;36726;52.328;10.552;2023-03-23T21:31:56;3.58;;;2.53;;
21272;SDS011;36726;52.328;10.552;2023-03-23T21:34:27;3.15;;;2.55;;
21272;SDS011;36726;52.328;10.552;2023-03-23T21:36:57;3.97;;;2.72;;
21272;SDS011;36726;52.328;10.552;2023-03-23T21:39:23;4.75;;;2.70;;
21272;SDS011;36726;52.328;10.552;2023-03-23T21:41:51;5.20;;;2.50;;
21272;SDS011;36726;52.328;10.552;2023-03-23T21:44:18;3.30;;;2.60;;
21272;SDS011;36726;52.328;10.552;2023-03-23T21:46:45;3.50;;;2.00;;
21272;SDS011;36726;52.328;10.552;2023-03-23T21:49:11;4.18;;;2.30;;
21272;SDS011;36726;52.328;10.552;2023-03-23T21:51:41;3.05;;;2.38;;
21272;SDS011;36726;52.328;10.552;2023-03-23T21:54:09;4.72;;;2.42;;
21272;SDS011;36726;52.328;10.552;2023-03-23T21:56:36;4.53;;;2.30;;
21272;SDS011;36726;52.328;10.552;2023-03-23T21:59:03;3.50;;;2.05;;
21272;SDS011;36726;52.328;10.552;2023-03-23T22:01:33;3.97;;;2.38;;
21272;SDS011;36726;52.328;10.552;2023-03-23T22:04:02;3.83;;;2.00;;
21272;SDS011;36726;52.328;10.552;2023-03-23T22:06:29;2.75;;;2.13;;
21272;SDS011;36726;52.328;10.552;2023-03-23T22:08:56;4.53;;;2.20;;
21272;SDS011;36726;52.328;10.552;2023-03-23T22:11:24;7.38;;;2.08;;
21272;SDS011;36726;52.328;10.552;2023-03-23T22:13:52;2.67;;;1.77;;
21272;SDS011;36726;52.328;10.552;2023-03-23T22:16:20;2.30;;;1.55;;
21272;SDS011;36726;52.328;10.552;2023-03-23T22:18:47;2.40;;;1.73;;
21272;SDS011;36726;52.328;10.552;2023-03-23T22:21:15;2.97;;;1.95;;
21272;SDS011;36726;52.328;10.552;2023-03-23T22:23:43;2.28;;;1.85;;
21272;SDS011;36726;52.328;10.552;2023-03-23T22:26:11;2.15;;;1.50;;
21272;SDS011;36726;52.328;10.552;2023-03-23T22:28:39;3.28;;;1.63;;
21272;SDS011;36726;52.328;10.552;2023-03-23T22:31:07;2.65;;;1.90;;
21272;SDS011;36726;52.328;10.552;2023-03-23T22:33:38;2.75;;;1.50;;
21272;SDS011;36726;52.328;10.552;2023-03-23T22:36:05;2.83;;;1.88;;
21272;SDS011;36726;52.328;10.552;2023-03-23T22:38:32;3.00;;;1.70;;
21272;SDS011;36726;52.328;10.552;2023-03-23T22:41:02;1.98;;;1.33;;
21272;SDS011;36726;52.328;10.552;2023-03-23T22:43:32;2.85;;;1.50;;
21272;SDS011;36726;52.328;10.552;2023-03-23T22:46:03;3.65;;;1.95;;
21272;SDS011;36726;52.328;10.552;2023-03-23T22:48:31;2.60;;;1.60;;
21272;SDS011;36726;52.328;10.552;2023-03-23T22:50:57;2.17;;;1.55;;
21272;SDS011;36726;52.328;10.552;2023-03-23T22:53:25;3.08;;;1.52;;
21272;SDS011;36726;52.328;10.552;2023-03-23T22:55:53;2.28;;;1.58;;
21272;SDS011;36726;52.328;10.552;2023-03-23T22:58:21;3.30;;;1.73;;
21272;SDS011;36726;52.328;10.552;2023-03-23T23:00:53;2.40;;;1.33;;
21272;SDS011;36726;52.328;10.552;2023-03-23T23:03:28;5.03;;;1.20;;
21272;SDS011;36726;52.328;10.552;2023-03-23T23:05:55;3.50;;;1.38;;
21272;SDS011;36726;52.328;10.552;2023-03-23T23:08:24;1.65;;;1.15;;
21272;SDS011;36726;52.328;10.552;2023-03-23T23:10:52;1.85;;;1.02;;
21272;SDS011;36726;52.328;10.552;2023-03-23T23:13:19;3.92;;;1.10;;
21272;SDS011;36726;52.328;10.552;2023-03-23T23:15:47;4.22;;;1.10;;
21272;SDS011;36726;52.328;10.552;2023-03-23T23:18:16;3.35;;;1.13;;
21272;SDS011;36726;52.328;10.552;2023-03-23T23:20:46;1.92;;;1.10;;
21272;SDS011;36726;52.328;10.552;2023-03-23T23:23:13;4.13;;;1.17;;
21272;SDS011;36726;52.328;10.552;2023-03-23T23:25:40;2.45;;;1.05;;
21272;SDS011;36726;52.328;10.552;2023-03-23T23:28:07;2.22;;;1.20;;
21272;SDS011;36726;52.328;10.552;2023-03-23T23:30:33;2.80;;;1.10;;
21272;SDS011;36726;52.328;10.552;2023-03-23T23:33:00;2.17;;;1.30;;
21272;SDS011;36726;52.328;10.552;2023-03-23T23:35:27;3.28;;;1.25;;
21272;SDS011;36726;52.328;10.552;2023-03-23T23:37:54;2.17;;;1.20;;
21272;SDS011;36726;52.328;10.552;2023-03-23T23:40:20;2.70;;;0.90;;
21272;SDS011;36726;52.328;10.552;2023-03-23T23:42:48;2.63;;;0.98;;
21272;SDS011;36726;52.328;10.552;2023-03-23T23:45:15;4.75;;;1.15;;
21272;SDS011;36726;52.328;10.552;2023-03-23T23:47:43;2.00;;;0.90;;